Time;durP1;ratioP1;P1;durP2;ratioP2;P2;SDS_P1;SDS_P2;PMS_P1;PMS_P2;Temp;Humidity;BMP_temperature;BMP_pressure;BME280_temperature;BME280_humidity;BME280_pressure;Samples;Min_cycle;Max_cycle;Signal;HPM_P1;HPM_P2
2021/12/31 00:02:17;;;;;;;3.88;1.35;;;;;;;;;;5052668;28;20029;-92
2021/12/31 00:04:42;;;;;;;7.55;1.65;;;;;;;;;;5052921;28;20025;-91
2021/12/31 00:07:08;;;;;;;7.90;1.77;;;;;;;;;;5052837;28;20017;-92
2021/12/31 00:09:33;;;;;;;8.82;1.45;;;;;;;;;;5052840;28;20021;-92
2021/12/31 00:11:58;;;;;;;8.63;1.98;;;;;;;;;;5052820;28;20017;-91
2021/12/31 00:14:23;;;;;;;6.57;1.38;;;;;;;;;;5052890;28;20028;-92
2021/12/31 00:16:49;;;;;;;9.95;2.00;;;;;;;;;;5052923;28;20031;-92
2021/12/31 00:19:15;;;;;;;8.13;1.92;;;;;;;;;;5054409;28;20423;-92
2021/12/31 00:21:43;;;;;;;4.35;1.35;;;;;;;;;;5052833;28;20075;-92
2021/12/31 00:24:08;;;;;;;5.45;1.40;;;;;;;;;;5052776;28;20025;-92
2021/12/31 00:26:34;;;;;;;4.75;1.70;;;;;;;;;;5052672;28;20366;-92
2021/12/31 00:28:59;;;;;;;4.65;1.42;;;;;;;;;;5055079;28;20052;-92
2021/12/31 00:31:25;;;;;;;5.57;1.67;;;;;;;;;;5052626;28;20021;-92
2021/12/31 00:33:50;;;;;;;5.80;1.73;;;;;;;;;;5052667;28;20017;-92
2021/12/31 00:36:15;;;;;;;6.10;1.60;;;;;;;;;;5052580;28;20092;-92
2021/12/31 00:38:41;;;;;;;7.00;1.45;;;;;;;;;;5052673;28;20028;-92
2021/12/31 00:41:06;;;;;;;7.85;1.58;;;;;;;;;;5052714;28;20472;-92
2021/12/31 00:43:31;;;;;;;7.55;1.80;;;;;;;;;;5052531;28;20040;-92
2021/12/31 00:45:56;;;;;;;6.35;1.60;;;;;;;;;;5052186;28;20376;-92
2021/12/31 00:48:22;;;;;;;4.00;1.25;;;;;;;;;;5052351;28;20456;-92
2021/12/31 00:50:47;;;;;;;4.45;1.67;;;;;;;;;;5052619;28;20017;-92
2021/12/31 00:53:12;;;;;;;7.75;1.60;;;;;;;;;;5052476;28;20024;-91
2021/12/31 00:55:37;;;;;;;6.53;1.50;;;;;;;;;;5052536;28;20357;-92
2021/12/31 00:58:03;;;;;;;7.03;1.70;;;;;;;;;;5052412;28;20017;-92
2021/12/31 01:00:29;;;;;;;6.35;1.50;;;;;;;;;;5052490;28;20017;-92
2021/12/31 01:02:54;;;;;;;9.73;1.73;;;;;;;;;;5052324;28;20021;-92
2021/12/31 01:05:19;;;;;;;5.90;1.75;;;;;;;;;;5055825;28;20017;-91
2021/12/31 01:07:45;;;;;;;8.02;1.45;;;;;;;;;;5056040;28;20041;-92
2021/12/31 01:10:12;;;;;;;7.60;1.67;;;;;;;;;;5055852;28;20029;-92
2021/12/31 01:12:38;;;;;;;6.25;1.52;;;;;;;;;;5055917;28;20021;-92
2021/12/31 01:15:07;;;;;;;6.28;1.95;;;;;;;;;;5056026;28;20054;-92
2021/12/31 01:18:15;;;;;;;10.57;1.80;;;;;;;;;;5055684;28;20116;-92
2021/12/31 01:20:21;;;;;;;6.47;1.75;;;;;;;;;;5056601;28;20025;-92
2021/12/31 01:22:47;;;;;;;8.25;1.60;;;;;;;;;;5055766;28;20040;-92
2021/12/31 01:25:12;;;;;;;5.45;1.90;;;;;;;;;;5055649;28;20025;-92
2021/12/31 01:27:38;;;;;;;7.22;1.58;;;;;;;;;;5056693;28;20040;-92
2021/12/31 01:30:05;;;;;;;7.95;1.50;;;;;;;;;;5055377;28;20472;-91
2021/12/31 01:32:31;;;;;;;6.20;2.60;;;;;;;;;;5055551;28;20024;-91
2021/12/31 01:34:56;;;;;;;8.20;2.20;;;;;;;;;;5055528;28;20048;-92
2021/12/31 01:37:21;;;;;;;15.35;2.97;;;;;;;;;;5056509;28;20028;-92
2021/12/31 01:39:47;;;;;;;4.88;1.48;;;;;;;;;;5054728;28;20431;-92
2021/12/31 01:42:17;;;;;;;11.30;2.20;;;;;;;;;;5054617;28;20029;-92
2021/12/31 01:44:52;;;;;;;7.13;2.05;;;;;;;;;;5054633;28;20025;-92
2021/12/31 01:47:21;;;;;;;6.22;1.77;;;;;;;;;;5055745;28;20036;-92
2021/12/31 01:49:56;;;;;;;6.53;1.70;;;;;;;;;;5055695;28;20468;-92
2021/12/31 01:52:21;;;;;;;6.05;1.38;;;;;;;;;;5054591;28;20048;-92
2021/12/31 01:54:47;;;;;;;10.98;2.25;;;;;;;;;;5055622;28;20495;-91
2021/12/31 01:57:13;;;;;;;7.10;1.75;;;;;;;;;;5054617;28;20021;-92
2021/12/31 01:59:38;;;;;;;9.48;1.80;;;;;;;;;;5054262;28;20021;-92
2021/12/31 02:02:07;;;;;;;5.57;1.52;;;;;;;;;;5054556;28;20020;-92
2021/12/31 02:04:33;;;;;;;6.35;1.83;;;;;;;;;;5054380;28;20469;-91
2021/12/31 02:06:58;;;;;;;3.83;1.75;;;;;;;;;;5054209;28;20024;-92
2021/12/31 02:09:24;;;;;;;10.77;2.13;;;;;;;;;;5062779;28;20047;-91
2021/12/31 02:11:52;;;;;;;8.68;2.17;;;;;;;;;;5061835;28;20024;-92
2021/12/31 02:14:18;;;;;;;6.78;1.90;;;;;;;;;;5054747;28;20040;-92
2021/12/31 02:16:43;;;;;;;12.00;1.65;;;;;;;;;;5053997;28;20053;-92
2021/12/31 02:19:12;;;;;;;13.02;1.92;;;;;;;;;;5054503;28;20036;-92
2021/12/31 02:21:38;;;;;;;7.60;1.40;;;;;;;;;;5088252;28;20021;-92
2021/12/31 02:24:06;;;;;;;5.57;1.80;;;;;;;;;;5054494;28;20075;-92
2021/12/31 02:26:31;;;;;;;7.80;1.80;;;;;;;;;;5055525;28;20526;-92
2021/12/31 02:28:56;;;;;;;9.25;1.92;;;;;;;;;;5087783;28;20049;-91
2021/12/31 02:31:22;;;;;;;4.20;1.63;;;;;;;;;;5087941;28;20009;-92
2021/12/31 02:33:47;;;;;;;4.75;2.05;;;;;;;;;;5087608;28;20456;-92
2021/12/31 02:36:12;;;;;;;9.55;1.90;;;;;;;;;;5054899;28;20023;-92
2021/12/31 02:38:37;;;;;;;6.55;1.50;;;;;;;;;;5054422;28;20174;-92
2021/12/31 02:41:03;;;;;;;11.40;2.30;;;;;;;;;;5087767;28;20067;-91
2021/12/31 02:43:28;;;;;;;12.13;2.30;;;;;;;;;;5087797;28;20119;-92
2021/12/31 02:45:53;;;;;;;7.40;2.05;;;;;;;;;;5087712;28;20060;-91
2021/12/31 02:48:25;;;;;;;11.80;2.05;;;;;;;;;;5087608;28;20476;-92
2021/12/31 02:50:51;;;;;;;12.40;2.30;;;;;;;;;;5087744;28;20041;-92
2021/12/31 02:53:16;;;;;;;5.80;1.95;;;;;;;;;;5087567;28;20487;-92
2021/12/31 02:55:43;;;;;;;6.35;2.38;;;;;;;;;;5071215;28;20099;-92
2021/12/31 02:58:08;;;;;;;12.55;2.00;;;;;;;;;;5073605;28;20111;-92
2021/12/31 03:00:34;;;;;;;9.85;2.50;;;;;;;;;;5074653;28;20052;-91
2021/12/31 03:03:00;;;;;;;6.32;2.17;;;;;;;;;;5074361;28;20017;-92
2021/12/31 03:05:26;;;;;;;6.03;2.35;;;;;;;;;;5073376;28;20046;-92
2021/12/31 03:07:53;;;;;;;13.75;2.15;;;;;;;;;;5073118;28;20049;-92
2021/12/31 03:10:19;;;;;;;7.18;2.13;;;;;;;;;;5072970;28;20017;-91
2021/12/31 03:12:45;;;;;;;15.90;2.40;;;;;;;;;;5073312;28;20353;-92
2021/12/31 03:15:10;;;;;;;9.43;2.67;;;;;;;;;;5073061;28;20012;-92
2021/12/31 03:17:36;;;;;;;7.47;2.25;;;;;;;;;;5074182;28;20023;-91
2021/12/31 03:20:16;;;;;;;9.63;2.45;;;;;;;;;;5065030;28;20124;-92
2021/12/31 03:22:41;;;;;;;11.80;2.38;;;;;;;;;;5053559;28;20140;-92
2021/12/31 03:25:07;;;;;;;8.18;1.80;;;;;;;;;;5054467;28;20017;-92
2021/12/31 03:27:33;;;;;;;8.55;2.42;;;;;;;;;;5053282;28;20064;-91
2021/12/31 03:29:58;;;;;;;9.50;2.65;;;;;;;;;;5053344;28;20120;-92
2021/12/31 03:32:23;;;;;;;6.72;2.30;;;;;;;;;;5053402;28;20021;-91
2021/12/31 03:34:48;;;;;;;14.38;2.40;;;;;;;;;;5053354;28;20060;-92
2021/12/31 03:37:14;;;;;;;6.53;2.35;;;;;;;;;;5053217;28;20048;-92
2021/12/31 03:39:39;;;;;;;13.38;2.92;;;;;;;;;;5053198;28;20027;-92
2021/12/31 03:42:04;;;;;;;8.55;2.53;;;;;;;;;;5053269;28;20048;-92
2021/12/31 03:44:29;;;;;;;7.28;2.33;;;;;;;;;;5054287;28;20020;-92
2021/12/31 03:46:55;;;;;;;7.45;2.60;;;;;;;;;;5054327;28;20487;-91
2021/12/31 03:49:20;;;;;;;9.15;2.38;;;;;;;;;;5053107;28;20461;-92
2021/12/31 03:51:45;;;;;;;11.82;2.65;;;;;;;;;;5054232;28;20032;-92
2021/12/31 03:54:10;;;;;;;14.38;2.45;;;;;;;;;;5053116;28;20064;-91
2021/12/31 03:56:35;;;;;;;9.25;2.28;;;;;;;;;;5053135;28;20421;-92
2021/12/31 03:59:01;;;;;;;6.68;2.45;;;;;;;;;;5062204;28;20032;-92
2021/12/31 04:01:27;;;;;;;9.77;2.60;;;;;;;;;;5074239;28;20025;-92
2021/12/31 04:03:52;;;;;;;7.45;2.78;;;;;;;;;;5072984;28;20379;-92
2021/12/31 04:06:17;;;;;;;6.20;1.90;;;;;;;;;;5074003;28;20027;-91
2021/12/31 04:08:43;;;;;;;11.40;2.85;;;;;;;;;;5067351;28;20032;-91
2021/12/31 04:11:10;;;;;;;11.88;2.45;;;;;;;;;;5052957;28;20020;-91
2021/12/31 04:13:35;;;;;;;10.55;2.70;;;;;;;;;;5052687;28;20020;-92
2021/12/31 04:16:00;;;;;;;11.73;3.00;;;;;;;;;;5052939;28;20500;-92
2021/12/31 04:18:26;;;;;;;10.90;2.20;;;;;;;;;;5053924;28;20021;-92
2021/12/31 04:20:55;;;;;;;7.30;2.10;;;;;;;;;;5052740;28;20477;-91
2021/12/31 04:23:28;;;;;;;11.45;2.65;;;;;;;;;;5053607;28;20052;-91
2021/12/31 04:25:54;;;;;;;11.52;2.78;;;;;;;;;;5052584;28;20032;-92
2021/12/31 04:28:19;;;;;;;8.25;2.25;;;;;;;;;;5052906;28;20028;-91
2021/12/31 04:30:45;;;;;;;12.13;2.45;;;;;;;;;;5052567;28;20029;-91
2021/12/31 04:33:10;;;;;;;9.93;2.78;;;;;;;;;;5052606;28;20052;-91
2021/12/31 04:35:35;;;;;;;7.30;2.15;;;;;;;;;;5052570;28;20074;-92
2021/12/31 04:38:00;;;;;;;8.55;2.25;;;;;;;;;;5052404;28;20420;-92
2021/12/31 04:40:26;;;;;;;8.85;2.00;;;;;;;;;;5056371;28;20476;-92
2021/12/31 04:42:51;;;;;;;7.90;2.13;;;;;;;;;;5058074;28;20025;-92
2021/12/31 04:45:16;;;;;;;7.57;2.47;;;;;;;;;;5076466;28;20541;-92
2021/12/31 04:47:41;;;;;;;6.03;2.22;;;;;;;;;;5077316;28;20070;-92
2021/12/31 04:50:07;;;;;;;4.63;1.92;;;;;;;;;;5077211;28;20044;-92
2021/12/31 04:52:32;;;;;;;7.22;2.50;;;;;;;;;;5076276;28;20024;-92
2021/12/31 04:54:57;;;;;;;7.93;2.20;;;;;;;;;;5076357;28;20029;-91
2021/12/31 04:57:25;;;;;;;11.98;3.97;;;;;;;;;;5076168;28;20035;-92
2021/12/31 04:59:50;;;;;;;11.48;2.30;;;;;;;;;;5071595;28;20388;-91
2021/12/31 05:02:15;;;;;;;8.65;2.35;;;;;;;;;;5076285;28;20021;-92
2021/12/31 05:04:41;;;;;;;6.80;2.15;;;;;;;;;;5077059;28;20031;-92
2021/12/31 05:07:06;;;;;;;5.82;2.17;;;;;;;;;;5077424;28;20032;-91
2021/12/31 05:09:31;;;;;;;10.38;2.33;;;;;;;;;;5075942;28;20024;-92
2021/12/31 05:11:56;;;;;;;6.78;1.63;;;;;;;;;;5076011;28;20533;-91
2021/12/31 05:14:22;;;;;;;7.18;1.75;;;;;;;;;;5075885;28;20020;-91
2021/12/31 05:16:47;;;;;;;6.03;2.58;;;;;;;;;;5075817;28;20021;-91
2021/12/31 05:19:12;;;;;;;5.75;2.00;;;;;;;;;;5071281;28;20477;-92
2021/12/31 05:21:38;;;;;;;7.18;2.97;;;;;;;;;;5071042;28;20020;-91
2021/12/31 05:24:03;;;;;;;7.75;2.00;;;;;;;;;;5075851;28;20115;-91
2021/12/31 05:26:28;;;;;;;5.95;2.00;;;;;;;;;;5076630;28;20511;-92
2021/12/31 05:28:53;;;;;;;4.15;1.77;;;;;;;;;;5055621;28;20108;-91
2021/12/31 05:31:19;;;;;;;6.35;2.10;;;;;;;;;;5055647;28;20523;-92
2021/12/31 05:33:44;;;;;;;9.00;2.20;;;;;;;;;;5056639;28;20013;-91
2021/12/31 05:36:09;;;;;;;8.02;2.47;;;;;;;;;;5055617;28;20107;-91
2021/12/31 05:38:34;;;;;;;5.78;2.00;;;;;;;;;;5056666;28;20023;-92
2021/12/31 05:40:59;;;;;;;7.90;2.40;;;;;;;;;;5072265;28;20059;-91
2021/12/31 05:43:25;;;;;;;6.10;2.10;;;;;;;;;;5055100;28;20028;-91
2021/12/31 05:45:50;;;;;;;5.55;2.05;;;;;;;;;;5056462;28;20388;-92
2021/12/31 05:48:15;;;;;;;5.85;1.80;;;;;;;;;;5055243;28;20506;-92
2021/12/31 05:50:40;;;;;;;7.88;2.25;;;;;;;;;;5054196;28;20029;-92
2021/12/31 05:53:05;;;;;;;8.57;2.03;;;;;;;;;;5055247;28;20090;-91
2021/12/31 05:55:31;;;;;;;6.88;2.20;;;;;;;;;;5055073;28;20112;-91
2021/12/31 05:57:56;;;;;;;11.43;1.83;;;;;;;;;;5055211;28;20017;-92
2021/12/31 06:00:22;;;;;;;3.72;1.73;;;;;;;;;;5055795;28;20079;-92
2021/12/31 06:02:48;;;;;;;5.15;2.38;;;;;;;;;;5055783;28;20033;-92
2021/12/31 06:05:13;;;;;;;7.22;2.08;;;;;;;;;;5088408;28;20017;-92
2021/12/31 06:07:38;;;;;;;7.63;1.90;;;;;;;;;;5088546;28;20032;-92
2021/12/31 06:10:03;;;;;;;4.13;1.80;;;;;;;;;;5054889;28;20025;-91
2021/12/31 06:12:29;;;;;;;5.57;1.90;;;;;;;;;;5056003;28;20017;-92
2021/12/31 06:14:58;;;;;;;10.43;2.28;;;;;;;;;;5088409;28;20460;-91
2021/12/31 06:17:25;;;;;;;6.80;2.00;;;;;;;;;;5054680;28;20027;-91
2021/12/31 06:19:51;;;;;;;8.13;2.72;;;;;;;;;;5088141;28;20036;-91
2021/12/31 06:22:16;;;;;;;11.05;3.80;;;;;;;;;;5088295;28;20025;-92
2021/12/31 06:24:42;;;;;;;9.93;2.63;;;;;;;;;;5088219;28;20396;-91
2021/12/31 06:27:08;;;;;;;5.75;2.45;;;;;;;;;;5054447;28;20036;-91
2021/12/31 06:29:33;;;;;;;6.28;1.80;;;;;;;;;;5087941;28;20507;-91
2021/12/31 06:31:58;;;;;;;6.10;2.17;;;;;;;;;;5088142;28;20021;-92
2021/12/31 06:34:23;;;;;;;6.88;1.90;;;;;;;;;;5087749;28;20093;-92
2021/12/31 06:36:48;;;;;;;7.18;2.03;;;;;;;;;;5054459;28;20430;-92
2021/12/31 06:39:14;;;;;;;6.28;1.70;;;;;;;;;;5054336;28;20128;-91
2021/12/31 06:41:39;;;;;;;10.82;3.95;;;;;;;;;;5055331;28;20021;-92
2021/12/31 06:44:04;;;;;;;8.90;2.40;;;;;;;;;;5054354;28;20028;-91
2021/12/31 06:46:30;;;;;;;5.28;2.08;;;;;;;;;;5054139;28;20025;-92
2021/12/31 06:48:55;;;;;;;11.75;2.45;;;;;;;;;;5054072;28;20536;-92
2021/12/31 06:51:20;;;;;;;9.38;2.53;;;;;;;;;;5055253;28;20028;-92
2021/12/31 06:53:45;;;;;;;6.22;2.28;;;;;;;;;;5054125;28;20031;-92
2021/12/31 06:56:11;;;;;;;9.70;2.17;;;;;;;;;;5055045;28;20103;-92
2021/12/31 06:58:37;;;;;;;12.52;2.38;;;;;;;;;;5053972;28;20044;-92
2021/12/31 07:01:02;;;;;;;8.75;2.50;;;;;;;;;;5053666;28;20016;-92
2021/12/31 07:03:27;;;;;;;8.00;2.22;;;;;;;;;;5053750;28;20028;-91
2021/12/31 07:05:53;;;;;;;12.02;2.75;;;;;;;;;;5054850;28;20021;-92
2021/12/31 07:08:18;;;;;;;8.02;2.78;;;;;;;;;;5053050;28;20472;-92
2021/12/31 07:10:43;;;;;;;8.38;2.45;;;;;;;;;;5054801;28;20441;-92
2021/12/31 07:13:11;;;;;;;8.75;3.00;;;;;;;;;;5053695;28;20027;-92
2021/12/31 07:15:37;;;;;;;8.02;2.28;;;;;;;;;;5053724;28;20085;-92
2021/12/31 07:18:03;;;;;;;7.68;2.17;;;;;;;;;;5054640;28;20021;-92
2021/12/31 07:20:28;;;;;;;9.10;2.83;;;;;;;;;;5053530;28;20473;-92
2021/12/31 07:22:53;;;;;;;8.85;2.40;;;;;;;;;;5053672;28;20502;-91
2021/12/31 07:25:18;;;;;;;8.52;2.05;;;;;;;;;;5053361;28;20021;-92
2021/12/31 07:27:43;;;;;;;9.25;2.95;;;;;;;;;;5053268;28;20029;-92
2021/12/31 07:30:09;;;;;;;8.40;2.78;;;;;;;;;;5053154;28;20052;-92
2021/12/31 07:32:35;;;;;;;9.48;2.80;;;;;;;;;;5053121;28;20028;-92
2021/12/31 07:35:00;;;;;;;14.15;4.00;;;;;;;;;;5063513;28;20025;-91
2021/12/31 07:37:25;;;;;;;12.43;3.50;;;;;;;;;;5051728;28;20095;-92
2021/12/31 07:39:58;;;;;;;8.80;2.65;;;;;;;;;;5049576;28;20533;-92
2021/12/31 07:42:23;;;;;;;6.32;2.10;;;;;;;;;;5073623;28;20049;-92
2021/12/31 07:44:49;;;;;;;7.57;1.88;;;;;;;;;;5054649;28;20032;-92
2021/12/31 07:47:14;;;;;;;4.32;1.73;;;;;;;;;;5086490;28;20049;-92
2021/12/31 07:49:39;;;;;;;3.58;2.03;;;;;;;;;;5054272;28;20460;-93
2021/12/31 07:52:04;;;;;;;10.32;2.08;;;;;;;;;;5063450;28;20066;-92
2021/12/31 07:54:30;;;;;;;4.53;1.75;;;;;;;;;;5067091;28;20058;-91
2021/12/31 07:56:55;;;;;;;5.78;2.20;;;;;;;;;;5057696;28;20487;-93
2021/12/31 07:59:20;;;;;;;4.57;2.17;;;;;;;;;;5073059;28;20028;-92
2021/12/31 08:01:45;;;;;;;7.68;2.03;;;;;;;;;;5064811;28;20032;-92
2021/12/31 08:04:11;;;;;;;5.97;1.92;;;;;;;;;;5085155;28;20448;-92
2021/12/31 08:06:36;;;;;;;3.25;1.48;;;;;;;;;;5052660;28;20049;-92
2021/12/31 08:09:01;;;;;;;5.90;1.50;;;;;;;;;;5053587;28;20083;-92
2021/12/31 08:11:26;;;;;;;7.72;1.75;;;;;;;;;;5072761;28;20020;-92
2021/12/31 08:13:52;;;;;;;7.90;1.67;;;;;;;;;;5074408;28;20017;-92
2021/12/31 08:16:17;;;;;;;5.53;1.85;;;;;;;;;;5071169;28;20013;-92
2021/12/31 08:18:42;;;;;;;4.18;1.80;;;;;;;;;;5090490;28;20055;-93
2021/12/31 08:21:07;;;;;;;5.32;1.80;;;;;;;;;;5091028;28;20021;-93
2021/12/31 08:23:32;;;;;;;6.03;2.58;;;;;;;;;;5090710;28;20028;-93
2021/12/31 08:25:59;;;;;;;5.82;2.42;;;;;;;;;;5057245;28;20024;-92
2021/12/31 08:28:25;;;;;;;3.88;1.92;;;;;;;;;;5067108;28;20024;-93
2021/12/31 08:30:50;;;;;;;4.80;2.00;;;;;;;;;;5076818;28;20039;-92
2021/12/31 08:33:15;;;;;;;8.02;2.00;;;;;;;;;;5071440;28;20020;-93
2021/12/31 08:35:41;;;;;;;9.25;2.70;;;;;;;;;;5065815;28;20423;-92
2021/12/31 08:38:06;;;;;;;7.40;2.25;;;;;;;;;;5089831;28;20527;-93
2021/12/31 08:40:31;;;;;;;9.27;2.47;;;;;;;;;;5090160;28;20024;-92
2021/12/31 08:42:56;;;;;;;4.70;1.95;;;;;;;;;;5056606;28;20045;-92
2021/12/31 08:45:21;;;;;;;6.90;2.10;;;;;;;;;;5056344;28;20017;-92
2021/12/31 08:47:47;;;;;;;3.65;1.60;;;;;;;;;;5060301;28;20029;-95
2021/12/31 08:50:12;;;;;;;3.15;1.60;;;;;;;;;;5056754;28;20112;-95
2021/12/31 08:52:37;;;;;;;4.35;1.67;;;;;;;;;;5090156;28;20357;-91
2021/12/31 08:55:03;;;;;;;7.18;2.80;;;;;;;;;;5106137;28;20035;-90
2021/12/31 08:57:29;;;;;;;5.95;1.88;;;;;;;;;;5075740;28;20036;-92
2021/12/31 08:59:54;;;;;;;6.22;2.13;;;;;;;;;;5073893;28;20024;-91
2021/12/31 09:02:19;;;;;;;11.65;2.40;;;;;;;;;;5060240;28;20066;-93
2021/12/31 09:04:44;;;;;;;6.57;2.50;;;;;;;;;;5047154;28;20028;-93
2021/12/31 09:07:09;;;;;;;3.88;1.92;;;;;;;;;;5065936;28;20024;-91
2021/12/31 09:09:35;;;;;;;6.13;1.48;;;;;;;;;;5089288;28;20056;-90
2021/12/31 09:12:00;;;;;;;3.45;1.55;;;;;;;;;;5109042;28;20099;-93
2021/12/31 09:14:25;;;;;;;3.40;1.40;;;;;;;;;;5076128;28;20529;-93
2021/12/31 09:16:51;;;;;;;3.15;1.42;;;;;;;;;;5075958;28;20066;-93
2021/12/31 09:19:16;;;;;;;3.47;1.40;;;;;;;;;;5073143;28;20460;-93
2021/12/31 09:21:41;;;;;;;2.95;1.40;;;;;;;;;;5061049;28;20107;-91
2021/12/31 09:24:07;;;;;;;5.68;1.52;;;;;;;;;;5063064;28;20475;-94
2021/12/31 09:26:32;;;;;;;2.55;1.27;;;;;;;;;;5055871;28;20035;-92
2021/12/31 09:28:58;;;;;;;8.10;1.88;;;;;;;;;;5056745;28;20031;-91
2021/12/31 09:31:23;;;;;;;1.92;1.23;;;;;;;;;;5087314;28;20424;-91
2021/12/31 09:33:49;;;;;;;3.60;1.08;;;;;;;;;;5055461;28;20472;-90
2021/12/31 09:36:14;;;;;;;8.38;1.45;;;;;;;;;;5072197;28;20427;-91
2021/12/31 09:38:39;;;;;;;3.42;1.27;;;;;;;;;;5075491;28;20044;-91
2021/12/31 09:41:05;;;;;;;3.00;1.73;;;;;;;;;;5055313;28;20024;-91
2021/12/31 09:43:30;;;;;;;4.68;1.55;;;;;;;;;;5056413;28;20028;-91
2021/12/31 09:45:55;;;;;;;2.88;1.30;;;;;;;;;;5056437;28;20020;-91
2021/12/31 09:48:21;;;;;;;5.80;1.30;;;;;;;;;;5088697;28;20025;-91
2021/12/31 09:50:48;;;;;;;3.60;1.30;;;;;;;;;;5055256;28;20110;-91
2021/12/31 09:53:14;;;;;;;2.40;1.00;;;;;;;;;;5088705;28;20044;-90
2021/12/31 09:55:44;;;;;;;3.90;1.30;;;;;;;;;;5057259;28;20405;-91
2021/12/31 09:58:10;;;;;;;5.50;1.50;;;;;;;;;;5055081;28;20021;-91
2021/12/31 10:00:37;;;;;;;3.30;1.42;;;;;;;;;;5055081;28;20487;-91
2021/12/31 10:03:09;;;;;;;2.83;1.20;;;;;;;;;;5069267;28;20024;-91
2021/12/31 10:05:45;;;;;;;2.53;1.40;;;;;;;;;;5076055;28;20025;-90
2021/12/31 10:08:14;;;;;;;2.17;1.40;;;;;;;;;;5060248;28;20025;-91
2021/12/31 10:10:39;;;;;;;4.80;1.40;;;;;;;;;;5088310;28;20023;-91
2021/12/31 10:13:07;;;;;;;4.25;1.70;;;;;;;;;;5054714;28;20528;-91
2021/12/31 10:15:36;;;;;;;4.65;1.38;;;;;;;;;;5054378;28;20067;-91
2021/12/31 10:18:08;;;;;;;2.33;1.25;;;;;;;;;;5055613;28;20083;-90
2021/12/31 10:20:45;;;;;;;2.05;1.27;;;;;;;;;;5089689;28;20029;-91
2021/12/31 10:23:12;;;;;;;4.72;1.50;;;;;;;;;;5041225;28;20362;-90
2021/12/31 10:25:39;;;;;;;2.83;1.17;;;;;;;;;;5088013;28;20120;-91
2021/12/31 10:28:11;;;;;;;4.25;1.50;;;;;;;;;;5087902;28;20082;-91
2021/12/31 10:30:37;;;;;;;5.82;1.52;;;;;;;;;;5055584;28;20055;-91
2021/12/31 10:33:02;;;;;;;1.70;0.95;;;;;;;;;;5057253;28;20013;-90
2021/12/31 10:35:36;;;;;;;3.75;1.20;;;;;;;;;;5054465;28;20017;-92
2021/12/31 10:38:02;;;;;;;2.22;1.40;;;;;;;;;;5061983;28;20016;-92
2021/12/31 10:40:32;;;;;;;3.65;1.27;;;;;;;;;;5074240;28;20031;-92
2021/12/31 10:43:16;;;;;;;4.65;1.40;;;;;;;;;;5055562;28;20079;-91
2021/12/31 10:45:54;;;;;;;5.10;1.45;;;;;;;;;;5083248;28;20040;-91
2021/12/31 10:48:19;;;;;;;4.13;1.35;;;;;;;;;;5048331;28;20404;-90
2021/12/31 10:50:50;;;;;;;4.95;1.25;;;;;;;;;;5055033;28;20028;-92
2021/12/31 10:53:28;;;;;;;4.97;1.20;;;;;;;;;;5086619;28;20046;-92
2021/12/31 10:56:03;;;;;;;5.18;1.38;;;;;;;;;;5080045;28;20377;-90
2021/12/31 10:58:28;;;;;;;2.22;1.23;;;;;;;;;;5061710;28;20021;-92
2021/12/31 11:00:53;;;;;;;3.20;1.17;;;;;;;;;;5062645;28;20024;-91
2021/12/31 11:03:19;;;;;;;5.25;1.10;;;;;;;;;;5066361;28;20028;-91
2021/12/31 11:05:45;;;;;;;5.60;1.27;;;;;;;;;;5065223;28;20019;-91
2021/12/31 11:08:13;;;;;;;2.55;1.08;;;;;;;;;;5058671;28;20022;-91
2021/12/31 11:10:39;;;;;;;2.53;1.02;;;;;;;;;;5063671;28;20417;-90
2021/12/31 11:13:10;;;;;;;2.38;0.52;;;;;;;;;;5096022;28;20383;-90
2021/12/31 11:15:36;;;;;;;3.30;1.40;;;;;;;;;;5072145;28;20077;-90
2021/12/31 11:18:01;;;;;;;1.42;0.82;;;;;;;;;;5053226;28;20025;-90
2021/12/31 11:20:27;;;;;;;0.40;0.20;;;;;;;;;;5054404;28;20017;-90
2021/12/31 11:22:53;;;;;;;6.55;1.33;;;;;;;;;;5086910;28;20029;-90
2021/12/31 11:25:24;;;;;;;1.00;0.40;;;;;;;;;;5086625;28;20056;-90
2021/12/31 11:27:51;;;;;;;2.33;1.23;;;;;;;;;;5064940;28;20051;-89
2021/12/31 11:30:27;;;;;;;2.13;0.90;;;;;;;;;;5039519;28;20492;-90
2021/12/31 11:33:00;;;;;;;3.72;1.00;;;;;;;;;;5052656;28;20473;-90
2021/12/31 11:35:33;;;;;;;4.60;1.27;;;;;;;;;;5053676;28;20441;-88
2021/12/31 11:37:59;;;;;;;2.50;1.05;;;;;;;;;;5053093;28;20020;-90
2021/12/31 11:40:49;;;;;;;1.63;0.77;;;;;;;;;;5052454;28;20083;-91
2021/12/31 11:43:23;;;;;;;8.05;1.20;;;;;;;;;;5054392;28;20071;-89
2021/12/31 11:46:08;;;;;;;3.58;1.30;;;;;;;;;;5087668;28;20075;-89
2021/12/31 11:48:48;;;;;;;6.65;1.45;;;;;;;;;;5054580;28;20083;-89
2021/12/31 11:51:14;;;;;;;3.63;1.60;;;;;;;;;;5058503;28;20025;-89
2021/12/31 11:53:57;;;;;;;1.63;1.08;;;;;;;;;;5053554;28;20074;-90
2021/12/31 11:56:49;;;;;;;1.25;0.60;;;;;;;;;;5083824;28;20021;-90
2021/12/31 11:59:40;;;;;;;3.30;1.70;;;;;;;;;;5052713;28;20037;-91
2021/12/31 12:02:15;;;;;;;2.10;1.20;;;;;;;;;;5053264;28;20025;-91
2021/12/31 12:04:59;;;;;;;5.10;1.20;;;;;;;;;;5086432;28;20028;-91
2021/12/31 12:07:46;;;;;;;1.45;0.80;;;;;;;;;;5066320;28;20022;-91
2021/12/31 12:10:12;;;;;;;5.32;1.50;;;;;;;;;;5034069;28;20029;-92
2021/12/31 12:12:39;;;;;;;0.68;0.40;;;;;;;;;;5052561;28;20033;-91
2021/12/31 12:15:19;;;;;;;1.80;0.70;;;;;;;;;;5052834;28;20036;-91
2021/12/31 12:17:45;;;;;;;1.85;0.73;;;;;;;;;;5054298;28;20025;-91
2021/12/31 12:20:13;;;;;;;3.83;1.25;;;;;;;;;;5052924;28;20017;-92
2021/12/31 12:22:53;;;;;;;9.43;1.95;;;;;;;;;;5054139;28;20024;-91
2021/12/31 12:25:23;;;;;;;6.40;1.98;;;;;;;;;;5052680;28;20028;-92
2021/12/31 12:27:51;;;;;;;5.45;1.23;;;;;;;;;;5053783;28;20053;-92
2021/12/31 12:30:17;;;;;;;7.75;1.10;;;;;;;;;;5053699;28;20091;-91
2021/12/31 12:35:31;;;;;;;0.93;0.40;;;;;;;;;;5054078;28;20018;-92
2021/12/31 12:38:12;;;;;;;4.80;1.65;;;;;;;;;;5052020;28;20037;-91
2021/12/31 12:40:37;;;;;;;7.63;1.40;;;;;;;;;;5057068;28;20017;-91
2021/12/31 12:43:08;;;;;;;3.75;1.48;;;;;;;;;;5054124;28;20384;-91
2021/12/31 12:45:37;;;;;;;2.75;1.27;;;;;;;;;;5057604;28;20537;-92
2021/12/31 12:48:02;;;;;;;2.50;1.00;;;;;;;;;;5085724;28;20020;-92
2021/12/31 12:50:27;;;;;;;2.55;1.10;;;;;;;;;;5052372;28;20025;-91
2021/12/31 12:52:54;;;;;;;6.43;1.30;;;;;;;;;;5052539;28;20353;-91
2021/12/31 12:55:19;;;;;;;7.22;1.30;;;;;;;;;;5052469;28;20108;-91
2021/12/31 12:57:50;;;;;;;5.07;1.48;;;;;;;;;;5053681;28;20461;-90
2021/12/31 13:00:15;;;;;;;7.90;1.40;;;;;;;;;;5062613;28;20024;-91
2021/12/31 13:02:40;;;;;;;4.50;1.27;;;;;;;;;;5076200;28;20483;-91
2021/12/31 13:05:07;;;;;;;2.55;1.17;;;;;;;;;;5076135;28;20023;-91
2021/12/31 13:07:32;;;;;;;4.78;1.42;;;;;;;;;;5062835;28;20029;-91
2021/12/31 13:10:03;;;;;;;3.90;1.33;;;;;;;;;;5055219;28;20032;-90
2021/12/31 13:12:28;;;;;;;10.73;1.60;;;;;;;;;;5053666;28;20016;-91
2021/12/31 13:14:55;;;;;;;6.68;1.60;;;;;;;;;;5056788;28;20063;-91
2021/12/31 13:17:22;;;;;;;4.20;1.27;;;;;;;;;;5056390;28;20020;-91
2021/12/31 13:19:47;;;;;;;4.88;1.20;;;;;;;;;;5055597;28;20051;-91
2021/12/31 13:22:14;;;;;;;5.90;1.30;;;;;;;;;;5065340;28;20075;-91
2021/12/31 13:24:39;;;;;;;4.07;1.42;;;;;;;;;;5075365;28;20021;-91
2021/12/31 13:27:06;;;;;;;2.00;1.20;;;;;;;;;;5047821;28;20029;-91
2021/12/31 13:29:43;;;;;;;4.18;1.30;;;;;;;;;;5055511;28;20040;-91
2021/12/31 13:32:10;;;;;;;3.70;1.50;;;;;;;;;;5069075;28;20022;-91
2021/12/31 13:34:53;;;;;;;5.60;1.85;;;;;;;;;;5069084;28;20477;-91
2021/12/31 13:37:30;;;;;;;4.47;1.30;;;;;;;;;;5038393;28;20097;-91
2021/12/31 13:40:12;;;;;;;5.43;1.42;;;;;;;;;;5055288;28;20465;-91
2021/12/31 13:42:38;;;;;;;5.85;1.80;;;;;;;;;;5055840;28;20415;-91
2021/12/31 13:45:03;;;;;;;2.83;1.30;;;;;;;;;;5089116;28;20025;-91
2021/12/31 13:47:29;;;;;;;7.00;2.28;;;;;;;;;;5088806;28;20013;-91
2021/12/31 13:49:55;;;;;;;5.45;2.00;;;;;;;;;;5088821;28;20123;-91
2021/12/31 13:52:23;;;;;;;10.50;2.05;;;;;;;;;;5056288;28;20028;-91
2021/12/31 13:54:48;;;;;;;4.68;1.55;;;;;;;;;;5093710;28;20017;-91
2021/12/31 13:57:18;;;;;;;6.35;1.48;;;;;;;;;;5055169;28;20488;-92
2021/12/31 13:59:43;;;;;;;6.40;1.80;;;;;;;;;;5088807;28;20094;-91
2021/12/31 14:02:14;;;;;;;6.65;1.95;;;;;;;;;;5056162;28;20067;-91
2021/12/31 14:04:56;;;;;;;7.18;1.65;;;;;;;;;;5088486;28;20021;-92
2021/12/31 14:07:42;;;;;;;5.83;1.93;;;;;;;;;;5054957;28;20059;-92
2021/12/31 14:10:10;;;;;;;5.32;1.85;;;;;;;;;;5055004;28;20021;-91
2021/12/31 14:13:04;;;;;;;9.20;1.85;;;;;;;;;;5053804;28;20392;-91
2021/12/31 14:15:32;;;;;;;7.22;2.33;;;;;;;;;;5055562;28;20021;-91
2021/12/31 14:18:00;;;;;;;6.75;2.30;;;;;;;;;;5054759;28;20588;-91
2021/12/31 14:20:26;;;;;;;9.00;2.20;;;;;;;;;;5054689;28;20382;-91
2021/12/31 14:22:52;;;;;;;7.03;1.65;;;;;;;;;;5054619;28;20021;-91
2021/12/31 14:25:18;;;;;;;5.45;2.28;;;;;;;;;;5054493;28;20017;-91
2021/12/31 14:27:43;;;;;;;7.13;2.15;;;;;;;;;;5055550;28;20031;-91
2021/12/31 14:30:11;;;;;;;8.40;2.58;;;;;;;;;;5054461;28;20111;-91
2021/12/31 14:32:37;;;;;;;5.28;2.45;;;;;;;;;;5054400;28;20524;-91
2021/12/31 14:35:03;;;;;;;5.93;2.25;;;;;;;;;;5054336;28;20052;-91
2021/12/31 14:37:28;;;;;;;4.20;1.80;;;;;;;;;;5055470;28;20021;-91
2021/12/31 14:39:57;;;;;;;5.15;2.70;;;;;;;;;;5055428;28;20028;-91
2021/12/31 14:42:23;;;;;;;6.70;2.50;;;;;;;;;;5054295;28;20131;-91
2021/12/31 14:44:49;;;;;;;4.15;1.67;;;;;;;;;;5054126;28;20369;-92